• Join FlightAware (Why Join?)
  • Login
  • US Flag 
 
07:47AM EST


 

Airport Tracker/Info


-or-


 

Live Flight TrackerFlight Track Log ✈ WJA1211 ✈ 17-Apr-2013 ✈ KLGA - CYYZ

Flight Track Log - Related Links

Times and Time Zones

All times are in EDT time to prevent confusion due to time zone crossing. See the WJA1211 flight status page for this flight to view local times or setup timezone preferences in your user account.

Time Position Orientation Groundspeed Altitude Reporting Facility
EDT Latitude Longitude Course Direction KTS MPH feet Rate Location/Type
05:07PM 40.7667 -73.8000 327° Northwest 205 236 2,600  Level New York TRACON
05:09PM 40.8694 -73.8472 341° North 205 236 8,300 2,580 Climbing New York Center
05:10PM 40.9261 -73.9103 320° Northwest 248 285 10,600 2,460 Climbing New York Center
05:11PM 40.9950 -73.9850 321° Northwest 309 356 13,300 2,280 Climbing New York Center
05:13PM 41.1856 -74.1790 327° Northwest  Level FlightAware Approximate
05:13PM 41.0719 -74.0600 324° Northwest 342 394 15,300  Level New York Center
05:13PM 41.1453 -74.1242 327° Northwest 352 405 16,100 360 Climbing New York Center
05:14PM 41.2325 -74.2031 326° Northwest 347 399 16,100 840 Level New York Center
05:16PM 41.3097 -74.2733 326° Northwest 347 399 17,900 2,220 Climbing New York Center
05:17PM 41.3989 -74.3472 328° Northwest 352 405 20,700 3,180 Climbing New York Center
05:17PM 41.4561 -74.4553 305° West 352 405 24,200 3,240 Climbing New York Center
05:18PM 41.5044 -74.5742 299° West 357 411 27,200 1,860 Climbing New York Center
05:19PM 41.5467 -74.6792 298° West 362 417 28,000 360 Climbing New York Center
05:20PM 41.5969 -74.7986 299° West 367 422 28,000  Level New York Center
05:21PM 41.6489 -74.9183 300° West 372 428 28,000  Level New York Center
05:22PM 41.6989 -75.0381 299° West 372 428 28,000  Level New York Center
05:23PM 41.7508 -75.1583 300° West 372 428 28,000  Level New York Center
05:24PM 41.8042 -75.2842 300° West 378 435 28,000  Level New York Center
05:26PM 41.8536 -75.4072 298° West 378 435 28,000  Level New York Center
05:27PM 41.9050 -75.5278 300° West 378 435 28,000  Level New York Center
05:28PM 41.9544 -75.6458 299° West 378 435 28,000  Level New York Center
05:28PM 42.0114 -75.7783 300° West 378 435 28,000  Level New York Center
05:29PM 42.0508 -75.8764 298° West 378 435 28,000  Level New York Center
05:31PM 42.1036 -76.0089 298° West 373 429 28,000  Level New York Center
05:31PM 42.1544 -76.1278 300° West 373 429 28,000  Level New York Center
05:32PM 42.1861 -76.2278 293° West 379 436 28,000  Level Cleveland Center
05:33PM 42.2286 -76.3597 294° West 397 457 28,000  Level Cleveland Center
05:34PM 42.2708 -76.4917 293° West 391 450 28,000  Level Cleveland Center
05:35PM 42.3108 -76.6211 293° West 386 444 28,000  Level Cleveland Center
05:36PM 42.3528 -76.7533 293° West 386 444 28,000  Level Cleveland Center
05:37PM 42.3947 -76.8828 294° West 386 444 28,000  Level Cleveland Center
05:38PM 42.4361 -77.0128 293° West 386 444 28,000  Level Cleveland Center
05:39PM 42.4756 -77.1400 293° West 386 444 28,000  Level Cleveland Center
05:40PM 42.5169 -77.2731 293° West 386 444 28,000  Level Cleveland Center
05:41PM 42.5561 -77.4036 292° West 386 444 28,000  Level Cleveland Center
05:42PM 42.5972 -77.5369 293° West 381 438 28,000  Level Cleveland Center
05:43PM 42.6381 -77.6703 293° West 387 445 28,000  Level Cleveland Center
05:44PM 42.6789 -77.8042 293° West 387 445 28,000  Level Cleveland Center
05:45PM 42.7153 -77.9239 293° West 387 445 28,000  Level Cleveland Center
05:46PM 42.7558 -78.0608 292° West 387 445 28,000  Level Cleveland Center
05:47PM 42.7961 -78.1922 293° West 387 445 28,000 -360 Level Cleveland Center
05:48PM 42.8361 -78.3239 293° West 387 445 27,300 -900 Descending Cleveland Center
05:49PM 42.8719 -78.4528 291° West 382 440 26,300 -1,020 Descending Cleveland Center
05:50PM 42.9097 -78.5792 292° West 369 425 25,300 -1,020 Descending Cleveland Center
05:51PM 42.9575 -78.6967 299° West 364 419 24,300 -2,220 Descending Cleveland Center
05:53PM 43.0833 -78.9333 306° West 350 403 18,300 -2,640 Descending Toronto Center
05:54PM 43.1333 -79.0333 304° West 350 403 15,900 -2,100 Descending Toronto Center
05:55PM 43.1833 -79.1333 304° West 340 391 14,100 -1,500 Descending Toronto Center
05:56PM 43.2500 -79.2500 308° West 320 368 13,000 -900 Descending Toronto Center
05:57PM 43.3000 -79.3333 310° West 290 334 12,300 -1,020 Descending Toronto Center
05:58PM 43.3667 -79.3500 350° North 290 334 11,000 -1,260 Descending Toronto Center
05:59PM 43.4500 -79.4000 336° Northwest 290 334 9,800 -1,020 Descending Toronto Center
06:00PM 43.5167 -79.4333 340° North 280 322 9,000 -780 Descending Toronto Center
06:01PM 43.5667 -79.5000 316° Northwest 250 288 8,300 -960 Descending Toronto Center
06:02PM 43.5500 -79.5833 255° West 230 265 7,100 -1,140 Descending Toronto Center
06:03PM 43.5167 -79.6333 227° Southwest 230 265 6,100 -1,200 Descending Toronto Center
06:04PM 43.4667 -79.7000 224° Southwest 220 253 4,800 -1,200 Descending Toronto Center
06:05PM 43.4667 -79.7667 270° West 220 253 3,800 -900 Descending Toronto Center
06:06PM 43.5333 -79.7667 360° North 200 230 3,000 -540 Descending Toronto Center
06:07PM 43.5667 -79.7167 47° Northeast 200 230 2,800 -600 Descending Toronto Center
06:08PM 43.6000 -79.6833 36° Northeast 170 196 1,900 -900 Descending Toronto Center
06:09PM 43.6333 -79.6333 47° Northeast 130 150 1,100 -840 Descending Toronto Center